Puerto Banus, Marbella

>

This is an optional block (switch it off / on) in the settings - file ($SITE['banners'] = false;)

You can display ads, any other important text or photo’s using text / html or PHP code.

You can place one or more at the top and or bottom and it can all be different for content / size .



Meteosat more information blitzortung!


Radar lluvias  rain snow radar


Visita nuestra red de sitios de meteo:

Documentation for the template used

MeteoibericaRed estaciones Meteorologicas

MeteoclimaticRed estaciones Meteorologicas



Sin Advertencias climatologicas .En este momento tenemos Nivel Verde.    No hay Alarmas

Informes METAR proximidad

   
EBAW - Antwerp
Actualización: 10-12-2018 05:50
Claros  
Claros  
   Viento: West 14.8 km/h
Viento: West 14.8 km/h
Temperatura: 5°C
Térmica: 2°C
Punto de rocío: 3°C
Humedad: 87%
Baromètro: 1021 hPa
Visibilidad: More than 10 km
detalles de la nube: Claros
EBAW 100450Z AUTO 27008KT CAVOK 05/03 Q1021
EBLG - Liège
Actualización: 10-12-2018 05:50
Parcialmente Nublado  
Parcialmente Nublado  
   Viento: West 18.5 km/h
Viento: West 18.5 km/h
Temperatura: 3°C
Térmica: -1°C
Punto de rocío: 2°C
Humedad: 93%
Baromètro: 1021 hPa
Nublado: Parcialmente Nublado
Visibilidad: More than 10 km
detalles de la nube: Parcialmente Nublado 2300 ft
EBLG 100450Z 27010KT 9999 SCT023 03/02 Q1021 NOSIG
EBCV - Mons/Bergen
Actualización: 10-12-2018 05:55
Parcialmente nublado  
Parcialmente nublado  
   Viento: WSW 13 km/h
Viento: WSW 13 km/h
Temperatura: 4°C
Térmica: 1°C
Punto de rocío: 3°C
Humedad: 93%
Baromètro: 1023 hPa
Nublado: Parcialmente nublado
Visibilidad: More than 10 km
detalles de la nube: Parcialmente Nublado 2900 ft,
Parcialmente nublado 7900 ft
EBCV 100455Z AUTO 24007KT 9999 SCT029/// BKN079/// 04/03 Q1023 BLU
EHBK - Maastricht
Actualización: 10-12-2018 05:55
Light Showers, Luvia, Parcialmente nublado  
Light Showers, Luvia, Parcialmente nublado  
   Viento: West 11.1 km/h
Viento: West 11.1 km/h
Temperatura: 4°C
Térmica: 1°C
Punto de rocío: 3°C
Humedad: 93%
Baromètro: 1020 hPa
Nublado: Parcialmente nublado
Visibilidad: 9 km
detalles de la nube: Nubes dispersas 800 ft,
Parcialmente Nublado 1100 ft,
Nubes dispersas 1500 ft,
Parcialmente nublado 1600 ft
EHBK 100455Z AUTO 26006KT 210V320 9000 -SHRA FEW008 SCT011 FEW015CB BKN016 04/03 Q1020 RERA TEMPO 6000 SHRA FEW020CB
ELLX - Luxemburg
Actualización: 10-12-2018 05:50
Parcialmente nublado  
Parcialmente nublado  
   Viento: West 14.8 km/h
Viento: West 14.8 km/h
Temperatura: 3°C
Térmica: -1°C
Punto de rocío: 2°C
Humedad: 93%
Baromètro: 1021 hPa
Nublado: Parcialmente nublado
Visibilidad: More than 10 km
detalles de la nube: Nubes dispersas 3000 ft,
Parcialmente nublado 4500 ft
ELLX 100450Z 28008KT 9999 FEW030 BKN045 03/02 Q1021 NOSIG
EBOS - Oostende
Actualización: 10-12-2018 05:50
Parcialmente Nublado  
Parcialmente Nublado  
   Viento: NW 25.9 km/h
Viento: NW 25.9 km/h
Temperatura: 8°C
Térmica: 4°C
Punto de rocío: 4°C
Humedad: 76%
Baromètro: 1022 hPa
Nublado: Parcialmente Nublado
Visibilidad: More than 10 km
detalles de la nube: Nubes dispersas 2400 ft,
Parcialmente Nublado 4200 ft
EBOS 100450Z 31014KT 9999 FEW024 SCT042 08/04 Q1022 NOSIG

Guión original por  Saratoga-weather.org Adaptado para la plantilla por  Weerstation Leuven

Usted encontrará nuestra información del tiempo también en:

Weather Underground

Iberian Peninsula Weather Network